createdAt,value
2018-05-23T00:00:07.000Z,32
2018-05-23T00:02:07.000Z,32
2018-05-23T00:03:07.000Z,32
2018-05-23T00:05:07.000Z,32
2018-05-23T00:06:07.000Z,32
2018-05-23T00:07:07.000Z,32
2018-05-23T00:08:07.000Z,32
2018-05-23T00:09:07.000Z,32
2018-05-23T00:10:07.000Z,32
2018-05-23T00:11:07.000Z,32
2018-05-23T00:12:07.000Z,31
2018-05-23T00:13:07.000Z,32
2018-05-23T00:14:07.000Z,32
2018-05-23T00:16:07.000Z,32
2018-05-23T00:17:07.000Z,32
2018-05-23T00:18:06.000Z,31
2018-05-23T00:19:06.000Z,32
2018-05-23T00:21:06.000Z,31
2018-05-23T00:22:06.000Z,32
2018-05-23T00:23:06.000Z,32
2018-05-23T00:24:06.000Z,32
2018-05-23T00:25:06.000Z,32
2018-05-23T00:26:06.000Z,32
2018-05-23T00:27:06.000Z,32
2018-05-23T00:28:06.000Z,32
2018-05-23T00:29:06.000Z,32
2018-05-23T00:30:06.000Z,32
2018-05-23T00:31:06.000Z,32
2018-05-23T00:32:06.000Z,32
2018-05-23T00:33:06.000Z,32
2018-05-23T00:34:06.000Z,32
2018-05-23T00:35:06.000Z,32
2018-05-23T00:36:06.000Z,32
2018-05-23T00:37:06.000Z,31
2018-05-23T00:38:06.000Z,32
2018-05-23T00:39:06.000Z,32
2018-05-23T00:41:06.000Z,32
2018-05-23T00:42:06.000Z,32
2018-05-23T00:44:06.000Z,32
2018-05-23T00:45:06.000Z,32
2018-05-23T00:46:06.000Z,32
2018-05-23T00:47:06.000Z,32
2018-05-23T00:48:06.000Z,32
2018-05-23T00:49:06.000Z,32
2018-05-23T00:50:06.000Z,32
2018-05-23T00:51:06.000Z,32
2018-05-23T00:52:06.000Z,32
2018-05-23T00:53:06.000Z,32
2018-05-23T00:54:06.000Z,32
2018-05-23T00:56:06.000Z,31
2018-05-23T00:57:06.000Z,32
2018-05-23T00:58:06.000Z,32
2018-05-23T01:00:06.000Z,32
2018-05-23T01:01:06.000Z,32
2018-05-23T01:02:06.000Z,32
2018-05-23T01:03:06.000Z,32
2018-05-23T01:04:06.000Z,32
2018-05-23T01:05:06.000Z,32
2018-05-23T01:07:06.000Z,32
2018-05-23T01:08:06.000Z,32
2018-05-23T01:09:06.000Z,32
2018-05-23T01:10:06.000Z,32
2018-05-23T01:11:06.000Z,32
2018-05-23T01:12:06.000Z,32
2018-05-23T01:13:06.000Z,32
2018-05-23T01:14:06.000Z,32
2018-05-23T01:15:06.000Z,32
2018-05-23T01:16:06.000Z,32
2018-05-23T01:17:06.000Z,32
2018-05-23T01:18:06.000Z,32
2018-05-23T01:19:06.000Z,32
2018-05-23T01:20:06.000Z,32
2018-05-23T01:21:07.000Z,32
2018-05-23T01:22:07.000Z,32
2018-05-23T01:23:07.000Z,32
2018-05-23T01:24:07.000Z,32
2018-05-23T01:26:07.000Z,32
2018-05-23T01:27:07.000Z,32
2018-05-23T01:28:07.000Z,32
2018-05-23T01:29:07.000Z,32
2018-05-23T01:30:07.000Z,32
2018-05-23T01:31:07.000Z,32
2018-05-23T01:32:07.000Z,32
2018-05-23T01:33:07.000Z,32
2018-05-23T01:34:07.000Z,32
2018-05-23T01:36:07.000Z,32
2018-05-23T01:37:07.000Z,32
2018-05-23T01:38:07.000Z,32
2018-05-23T01:39:07.000Z,32
2018-05-23T01:40:07.000Z,32
2018-05-23T01:41:07.000Z,32
2018-05-23T01:42:07.000Z,32
2018-05-23T01:44:07.000Z,32
2018-05-23T01:45:07.000Z,32
2018-05-23T01:46:07.000Z,32
2018-05-23T01:47:07.000Z,32
2018-05-23T01:48:07.000Z,32
2018-05-23T01:49:07.000Z,32
2018-05-23T01:50:07.000Z,32
2018-05-23T01:51:07.000Z,32
2018-05-23T01:52:07.000Z,32
2018-05-23T01:53:07.000Z,32
2018-05-23T01:54:07.000Z,32
2018-05-23T01:55:07.000Z,32
2018-05-23T01:57:07.000Z,32
2018-05-23T01:58:07.000Z,32
2018-05-23T02:00:07.000Z,32
2018-05-23T02:03:53.000Z,32
2018-05-23T02:04:53.000Z,32
2018-05-23T02:06:53.000Z,32
2018-05-23T02:07:53.000Z,32
2018-05-23T02:08:53.000Z,32
2018-05-23T02:09:53.000Z,32
2018-05-23T02:10:53.000Z,32
2018-05-23T02:11:53.000Z,32
2018-05-23T02:12:53.000Z,32
2018-05-23T02:13:53.000Z,32
2018-05-23T02:14:53.000Z,32
2018-05-23T02:16:53.000Z,32
2018-05-23T02:17:53.000Z,32
2018-05-23T02:18:53.000Z,32
2018-05-23T02:19:53.000Z,32
2018-05-23T02:21:53.000Z,32
2018-05-23T02:22:53.000Z,32
2018-05-23T02:23:53.000Z,32
2018-05-23T02:24:53.000Z,32
2018-05-23T02:25:53.000Z,32
2018-05-23T02:26:53.000Z,32
2018-05-23T02:27:53.000Z,32
2018-05-23T02:28:53.000Z,32
2018-05-23T02:29:53.000Z,32
2018-05-23T02:30:53.000Z,32
2018-05-23T02:31:53.000Z,32
2018-05-23T02:32:53.000Z,32
2018-05-23T02:34:53.000Z,32
2018-05-23T02:35:53.000Z,32
2018-05-23T02:36:53.000Z,32
2018-05-23T02:37:53.000Z,32
2018-05-23T02:38:53.000Z,32
2018-05-23T02:39:53.000Z,32
2018-05-23T02:40:53.000Z,32
2018-05-23T02:42:53.000Z,32
2018-05-23T02:43:53.000Z,32
2018-05-23T02:44:53.000Z,32
2018-05-23T02:45:53.000Z,32
2018-05-23T02:46:53.000Z,32
2018-05-23T02:47:53.000Z,32
2018-05-23T02:49:53.000Z,32
2018-05-23T02:50:53.000Z,32
2018-05-23T02:51:53.000Z,32
2018-05-23T02:52:53.000Z,32
2018-05-23T02:53:53.000Z,32
2018-05-23T02:54:53.000Z,32
2018-05-23T02:55:53.000Z,32
2018-05-23T02:56:53.000Z,32
2018-05-23T02:57:53.000Z,32
2018-05-23T02:58:53.000Z,32
2018-05-23T02:59:53.000Z,32
2018-05-23T03:00:53.000Z,32
2018-05-23T03:01:53.000Z,32
2018-05-23T03:02:53.000Z,32
2018-05-23T03:03:53.000Z,32
2018-05-23T03:04:53.000Z,32
2018-05-23T03:05:53.000Z,32
2018-05-23T03:07:53.000Z,32
2018-05-23T03:08:53.000Z,32
2018-05-23T03:09:53.000Z,32
2018-05-23T03:11:53.000Z,32
2018-05-23T03:12:53.000Z,32
2018-05-23T03:13:53.000Z,32
2018-05-23T03:14:53.000Z,32
2018-05-23T03:15:53.000Z,32
2018-05-23T03:16:53.000Z,32
2018-05-23T03:17:53.000Z,32
2018-05-23T03:18:53.000Z,32
2018-05-23T03:19:53.000Z,32
2018-05-23T03:20:53.000Z,32
2018-05-23T03:21:53.000Z,32
2018-05-23T03:22:53.000Z,32
2018-05-23T03:23:53.000Z,32
2018-05-23T03:24:53.000Z,32
2018-05-23T03:25:53.000Z,32
2018-05-23T03:27:53.000Z,32
2018-05-23T03:28:53.000Z,32
2018-05-23T03:29:53.000Z,32
2018-05-23T03:30:53.000Z,32
2018-05-23T03:31:53.000Z,32
2018-05-23T03:32:53.000Z,32
2018-05-23T03:33:53.000Z,32
2018-05-23T03:34:53.000Z,32
2018-05-23T03:35:53.000Z,32
2018-05-23T03:36:53.000Z,32
2018-05-23T03:37:53.000Z,32
2018-05-23T03:38:53.000Z,32
2018-05-23T03:39:53.000Z,32
2018-05-23T03:40:53.000Z,31
2018-05-23T03:44:38.000Z,32
2018-05-23T03:45:38.000Z,32
2018-05-23T03:47:38.000Z,32
2018-05-23T03:48:38.000Z,32
2018-05-23T03:49:38.000Z,32
2018-05-23T03:50:38.000Z,32
2018-05-23T03:51:38.000Z,32
2018-05-23T03:52:38.000Z,32
2018-05-23T03:53:38.000Z,32
2018-05-23T03:54:38.000Z,32
2018-05-23T03:55:38.000Z,32
2018-05-23T03:56:38.000Z,32
2018-05-23T03:57:38.000Z,32
2018-05-23T03:58:38.000Z,32
2018-05-23T03:59:38.000Z,32
2018-05-23T04:00:38.000Z,32
2018-05-23T04:01:38.000Z,32
2018-05-23T04:02:38.000Z,32
2018-05-23T04:03:38.000Z,32
2018-05-23T04:04:38.000Z,32
2018-05-23T04:06:38.000Z,32
2018-05-23T04:07:38.000Z,32
2018-05-23T04:08:38.000Z,32
2018-05-23T04:09:38.000Z,32
2018-05-23T04:10:38.000Z,32
2018-05-23T04:11:38.000Z,32
2018-05-23T04:12:38.000Z,32
2018-05-23T04:14:38.000Z,31
2018-05-23T04:15:38.000Z,32
2018-05-23T04:16:38.000Z,32
2018-05-23T04:17:38.000Z,32
2018-05-23T04:18:38.000Z,32
2018-05-23T04:19:38.000Z,32
2018-05-23T04:20:38.000Z,32
2018-05-23T04:21:38.000Z,32
2018-05-23T04:22:38.000Z,32
2018-05-23T04:23:38.000Z,32
2018-05-23T04:25:38.000Z,33
2018-05-23T04:26:38.000Z,34
2018-05-23T04:27:38.000Z,34
2018-05-23T04:28:38.000Z,35
2018-05-23T04:29:38.000Z,35
2018-05-23T04:31:39.000Z,36
2018-05-23T04:32:39.000Z,36
2018-05-23T04:33:39.000Z,37
2018-05-23T04:34:39.000Z,37
2018-05-23T04:35:39.000Z,37
2018-05-23T04:36:39.000Z,37
2018-05-23T04:37:39.000Z,38
2018-05-23T04:38:39.000Z,38
2018-05-23T04:39:39.000Z,38
2018-05-23T04:40:39.000Z,38
2018-05-23T04:41:39.000Z,38
2018-05-23T04:42:39.000Z,38
2018-05-23T04:43:39.000Z,38
2018-05-23T04:44:39.000Z,38
2018-05-23T04:45:39.000Z,38
2018-05-23T04:46:39.000Z,38
2018-05-23T04:47:39.000Z,39
2018-05-23T04:48:39.000Z,39
2018-05-23T04:49:39.000Z,39
2018-05-23T04:50:39.000Z,39
2018-05-23T04:51:39.000Z,39
2018-05-23T04:52:39.000Z,39
2018-05-23T04:53:39.000Z,39
2018-05-23T04:54:39.000Z,39
2018-05-23T04:56:39.000Z,39
2018-05-23T04:58:39.000Z,39
2018-05-23T04:59:39.000Z,39
2018-05-23T05:00:39.000Z,39
2018-05-23T05:01:39.000Z,40
2018-05-23T05:02:39.000Z,40
2018-05-23T05:03:39.000Z,39
2018-05-23T05:04:39.000Z,39
2018-05-23T05:05:39.000Z,39
2018-05-23T05:06:39.000Z,39
2018-05-23T05:07:39.000Z,39
2018-05-23T05:08:39.000Z,40
2018-05-23T05:09:39.000Z,40
2018-05-23T05:10:39.000Z,40
2018-05-23T05:12:39.000Z,40
2018-05-23T05:13:39.000Z,40
2018-05-23T05:14:39.000Z,40
2018-05-23T05:15:39.000Z,41
2018-05-23T05:16:39.000Z,41
2018-05-23T05:17:39.000Z,41
2018-05-23T05:18:39.000Z,41
2018-05-23T05:19:39.000Z,41
2018-05-23T05:20:39.000Z,41
2018-05-23T05:21:39.000Z,41
2018-05-23T05:22:39.000Z,41
2018-05-23T05:23:39.000Z,41
2018-05-23T05:24:39.000Z,41
2018-05-23T05:25:39.000Z,41
2018-05-23T05:26:39.000Z,41
2018-05-23T05:27:39.000Z,41
2018-05-23T05:28:39.000Z,41
2018-05-23T05:29:39.000Z,41
2018-05-23T05:30:39.000Z,41
2018-05-23T05:31:39.000Z,41
2018-05-23T05:33:39.000Z,40
2018-05-23T05:34:39.000Z,40
2018-05-23T05:35:39.000Z,40
2018-05-23T05:36:39.000Z,41
2018-05-23T05:37:39.000Z,40
2018-05-23T05:38:39.000Z,40
2018-05-23T05:39:39.000Z,40
2018-05-23T05:40:39.000Z,40
2018-05-23T05:41:39.000Z,40
2018-05-23T05:42:39.000Z,40
2018-05-23T05:43:39.000Z,40
2018-05-23T05:44:39.000Z,40
2018-05-23T05:45:39.000Z,40
2018-05-23T05:47:39.000Z,40
2018-05-23T05:48:39.000Z,40
2018-05-23T05:49:39.000Z,40
2018-05-23T05:50:39.000Z,40
2018-05-23T05:51:39.000Z,40
2018-05-23T05:52:39.000Z,40
2018-05-23T05:54:39.000Z,40
2018-05-23T05:55:39.000Z,40
2018-05-23T05:56:39.000Z,40
2018-05-23T05:58:39.000Z,39
2018-05-23T06:00:39.000Z,39
2018-05-23T06:01:39.000Z,39
2018-05-23T06:02:39.000Z,39
2018-05-23T06:03:39.000Z,39
2018-05-23T06:04:39.000Z,39
2018-05-23T06:05:39.000Z,39
2018-05-23T06:06:39.000Z,39
2018-05-23T06:07:39.000Z,39
2018-05-23T06:08:39.000Z,39
2018-05-23T06:10:39.000Z,39
2018-05-23T06:11:39.000Z,39
2018-05-23T06:12:39.000Z,39
2018-05-23T06:13:39.000Z,39
2018-05-23T06:15:39.000Z,39
2018-05-23T06:16:39.000Z,39
2018-05-23T06:17:39.000Z,39
2018-05-23T06:18:39.000Z,39
2018-05-23T06:19:39.000Z,39
2018-05-23T06:20:39.000Z,40
2018-05-23T06:21:39.000Z,40
2018-05-23T06:22:39.000Z,39
2018-05-23T06:23:39.000Z,39
2018-05-23T06:24:39.000Z,40
2018-05-23T06:25:39.000Z,40
2018-05-23T06:26:39.000Z,39
2018-05-23T06:27:39.000Z,39
2018-05-23T06:29:39.000Z,39
2018-05-23T06:30:39.000Z,39
2018-05-23T06:31:39.000Z,39
2018-05-23T06:32:39.000Z,39
2018-05-23T06:33:39.000Z,39
2018-05-23T06:34:39.000Z,39
2018-05-23T06:35:39.000Z,39
2018-05-23T06:36:39.000Z,39
2018-05-23T06:37:39.000Z,39
2018-05-23T06:38:39.000Z,39
2018-05-23T06:39:39.000Z,39
2018-05-23T06:41:39.000Z,39
2018-05-23T06:42:39.000Z,39
2018-05-23T06:43:39.000Z,39
2018-05-23T06:44:39.000Z,39
2018-05-23T06:45:39.000Z,39
2018-05-23T06:46:39.000Z,40
2018-05-23T06:47:39.000Z,39
2018-05-23T06:48:39.000Z,40
2018-05-23T06:49:39.000Z,40
2018-05-23T06:50:39.000Z,40
2018-05-23T06:51:39.000Z,39
2018-05-23T06:52:39.000Z,39
2018-05-23T06:54:39.000Z,39
2018-05-23T06:55:39.000Z,40
2018-05-23T06:57:39.000Z,39
2018-05-23T06:58:39.000Z,40
2018-05-23T06:59:39.000Z,40
2018-05-23T07:00:39.000Z,40
2018-05-23T07:01:39.000Z,39
2018-05-23T07:02:39.000Z,40
2018-05-23T07:03:39.000Z,40
2018-05-23T07:04:39.000Z,39
2018-05-23T07:05:39.000Z,40
2018-05-23T07:06:39.000Z,40
2018-05-23T07:07:39.000Z,40
2018-05-23T07:08:39.000Z,40
2018-05-23T07:10:39.000Z,39
2018-05-23T07:11:39.000Z,40
2018-05-23T07:12:39.000Z,40
2018-05-23T07:13:39.000Z,40
2018-05-23T07:14:39.000Z,40
2018-05-23T07:15:39.000Z,40
2018-05-23T07:16:39.000Z,40
2018-05-23T07:17:39.000Z,40
2018-05-23T07:18:39.000Z,40
2018-05-23T07:19:39.000Z,40
2018-05-23T07:20:39.000Z,40
2018-05-23T07:22:39.000Z,40
2018-05-23T07:23:39.000Z,40
2018-05-23T07:24:39.000Z,40
2018-05-23T07:25:39.000Z,40
2018-05-23T07:26:39.000Z,40
2018-05-23T07:27:39.000Z,40
2018-05-23T07:28:39.000Z,40
2018-05-23T07:29:39.000Z,40
2018-05-23T07:30:39.000Z,40
2018-05-23T07:31:39.000Z,40
2018-05-23T07:32:39.000Z,40
2018-05-23T07:33:39.000Z,40
2018-05-23T07:34:39.000Z,40
2018-05-23T07:35:39.000Z,40
2018-05-23T07:36:39.000Z,40
2018-05-23T07:37:39.000Z,40
2018-05-23T07:38:39.000Z,40
2018-05-23T07:39:39.000Z,40
2018-05-23T07:40:39.000Z,40
2018-05-23T07:41:39.000Z,40
2018-05-23T07:42:39.000Z,40
2018-05-23T07:43:39.000Z,40
2018-05-23T07:44:39.000Z,40
2018-05-23T07:45:39.000Z,40
2018-05-23T07:47:39.000Z,39
2018-05-23T07:48:39.000Z,39
2018-05-23T07:49:39.000Z,39
2018-05-23T07:51:39.000Z,39
2018-05-23T07:52:39.000Z,39
2018-05-23T07:53:39.000Z,39
2018-05-23T07:54:39.000Z,39
2018-05-23T07:55:39.000Z,39
2018-05-23T07:56:39.000Z,39
2018-05-23T07:57:39.000Z,39
2018-05-23T07:58:39.000Z,39
2018-05-23T07:59:39.000Z,39
2018-05-23T08:00:39.000Z,39
2018-05-23T08:01:39.000Z,39
2018-05-23T08:02:39.000Z,39
2018-05-23T08:03:39.000Z,39
2018-05-23T08:04:39.000Z,39
2018-05-23T08:06:39.000Z,38
2018-05-23T08:07:39.000Z,39
2018-05-23T08:08:39.000Z,38
2018-05-23T08:09:39.000Z,38
2018-05-23T08:10:39.000Z,38
2018-05-23T08:11:39.000Z,38
2018-05-23T08:13:39.000Z,38
2018-05-23T08:15:39.000Z,38
2018-05-23T08:16:39.000Z,38
2018-05-23T08:17:39.000Z,37
2018-05-23T08:18:39.000Z,37
2018-05-23T08:20:39.000Z,37
2018-05-23T08:21:39.000Z,37
2018-05-23T08:22:39.000Z,37
2018-05-23T08:23:39.000Z,37
2018-05-23T08:24:39.000Z,37
2018-05-23T08:25:39.000Z,37
2018-05-23T08:26:39.000Z,37
2018-05-23T08:27:39.000Z,36
2018-05-23T08:28:39.000Z,36
2018-05-23T08:29:39.000Z,36
2018-05-23T08:30:39.000Z,36
2018-05-23T08:31:39.000Z,36
2018-05-23T08:33:39.000Z,36
2018-05-23T08:34:39.000Z,36
2018-05-23T08:35:39.000Z,36
2018-05-23T08:36:39.000Z,36
2018-05-23T08:37:39.000Z,36
2018-05-23T08:38:39.000Z,36
2018-05-23T08:39:39.000Z,36
2018-05-23T08:40:39.000Z,36
2018-05-23T08:41:39.000Z,36
2018-05-23T08:42:39.000Z,36
2018-05-23T08:43:39.000Z,36
2018-05-23T08:44:39.000Z,36
2018-05-23T08:45:39.000Z,36
2018-05-23T08:46:38.000Z,35
2018-05-23T08:47:38.000Z,35
2018-05-23T08:48:38.000Z,35
2018-05-23T08:49:38.000Z,35
2018-05-23T08:53:25.000Z,35
2018-05-23T08:54:25.000Z,36
2018-05-23T08:55:25.000Z,36
2018-05-23T08:56:25.000Z,36
2018-05-23T08:58:25.000Z,36
2018-05-23T08:59:25.000Z,36
2018-05-23T09:00:25.000Z,36
2018-05-23T09:02:25.000Z,36
2018-05-23T09:03:25.000Z,36
2018-05-23T09:04:25.000Z,36
2018-05-23T09:05:25.000Z,35
2018-05-23T09:06:25.000Z,36
2018-05-23T09:07:25.000Z,35
2018-05-23T09:08:25.000Z,35
2018-05-23T09:09:25.000Z,35
2018-05-23T09:10:25.000Z,36
2018-05-23T09:11:25.000Z,35
2018-05-23T09:13:25.000Z,35
2018-05-23T09:14:25.000Z,35
2018-05-23T09:15:25.000Z,35
2018-05-23T09:16:25.000Z,35
2018-05-23T09:17:25.000Z,36
2018-05-23T09:18:25.000Z,36
2018-05-23T09:19:25.000Z,35
2018-05-23T09:20:25.000Z,35
2018-05-23T09:22:25.000Z,35
2018-05-23T09:23:25.000Z,35
2018-05-23T09:24:25.000Z,36
2018-05-23T09:25:25.000Z,35
2018-05-23T09:26:25.000Z,35
2018-05-23T09:27:25.000Z,36
2018-05-23T09:28:25.000Z,36
2018-05-23T09:29:25.000Z,35
2018-05-23T09:30:25.000Z,35
2018-05-23T09:31:25.000Z,35
2018-05-23T09:32:25.000Z,35
2018-05-23T09:34:25.000Z,35
2018-05-23T09:35:25.000Z,35
2018-05-23T09:37:25.000Z,35
2018-05-23T09:38:25.000Z,35
2018-05-23T09:39:25.000Z,35
2018-05-23T09:40:25.000Z,35
2018-05-23T09:41:25.000Z,35
2018-05-23T09:42:25.000Z,35
2018-05-23T09:43:25.000Z,35
2018-05-23T09:44:25.000Z,35
2018-05-23T09:45:25.000Z,35
2018-05-23T09:46:25.000Z,35
2018-05-23T09:47:25.000Z,35
2018-05-23T09:48:25.000Z,35
2018-05-23T09:49:25.000Z,35
2018-05-23T09:50:25.000Z,35
2018-05-23T09:51:25.000Z,35
2018-05-23T09:52:25.000Z,35
2018-05-23T09:53:25.000Z,35
2018-05-23T09:54:25.000Z,35
2018-05-23T09:55:25.000Z,35
2018-05-23T09:56:25.000Z,34
2018-05-23T09:58:25.000Z,34
2018-05-23T09:59:25.000Z,34
2018-05-23T10:01:25.000Z,34
2018-05-23T10:02:25.000Z,34
2018-05-23T10:03:25.000Z,35
2018-05-23T10:05:25.000Z,34
2018-05-23T10:06:25.000Z,34
2018-05-23T10:07:25.000Z,34
2018-05-23T10:08:25.000Z,34
2018-05-23T10:09:25.000Z,34
2018-05-23T10:10:25.000Z,34
2018-05-23T10:11:25.000Z,34
2018-05-23T10:12:25.000Z,34
2018-05-23T10:13:25.000Z,34
2018-05-23T10:14:25.000Z,34
2018-05-23T10:15:25.000Z,34
2018-05-23T10:16:25.000Z,34
2018-05-23T10:17:25.000Z,34
2018-05-23T10:18:25.000Z,34
2018-05-23T10:19:25.000Z,34
2018-05-23T10:20:25.000Z,34
2018-05-23T10:21:25.000Z,34
2018-05-23T10:22:25.000Z,34
2018-05-23T10:23:25.000Z,34
2018-05-23T10:24:25.000Z,34
2018-05-23T10:25:25.000Z,34
2018-05-23T10:26:25.000Z,34
2018-05-23T10:27:25.000Z,34
2018-05-23T10:28:25.000Z,34
2018-05-23T10:29:25.000Z,34
2018-05-23T10:30:25.000Z,34
2018-05-23T10:31:25.000Z,34
2018-05-23T10:32:25.000Z,34
2018-05-23T10:33:25.000Z,34
2018-05-23T10:34:25.000Z,34
2018-05-23T10:35:25.000Z,34
2018-05-23T10:37:25.000Z,34
2018-05-23T10:38:25.000Z,34
2018-05-23T10:39:25.000Z,34
2018-05-23T10:40:25.000Z,34
2018-05-23T10:41:25.000Z,34
2018-05-23T10:42:25.000Z,34
2018-05-23T10:43:25.000Z,34
2018-05-23T10:44:25.000Z,34
2018-05-23T10:45:25.000Z,34
2018-05-23T10:47:25.000Z,34
2018-05-23T10:48:25.000Z,34
2018-05-23T10:49:25.000Z,34
2018-05-23T10:51:25.000Z,34
2018-05-23T10:52:25.000Z,34
2018-05-23T10:53:25.000Z,34
2018-05-23T10:54:25.000Z,34
2018-05-23T10:55:25.000Z,34
2018-05-23T10:56:25.000Z,34
2018-05-23T10:58:25.000Z,34
2018-05-23T10:59:25.000Z,34
2018-05-23T11:00:25.000Z,34
2018-05-23T11:01:25.000Z,34
2018-05-23T11:02:25.000Z,34
2018-05-23T11:03:25.000Z,34
2018-05-23T11:04:25.000Z,34
2018-05-23T11:05:25.000Z,34
2018-05-23T11:06:25.000Z,34
2018-05-23T11:07:25.000Z,34
2018-05-23T11:08:25.000Z,34
2018-05-23T11:09:25.000Z,34
2018-05-23T11:10:25.000Z,34
2018-05-23T11:11:25.000Z,34
2018-05-23T11:12:25.000Z,34
2018-05-23T11:14:25.000Z,34
2018-05-23T11:15:25.000Z,34
2018-05-23T11:16:25.000Z,33
2018-05-23T11:17:25.000Z,33
2018-05-23T11:18:25.000Z,34
2018-05-23T11:19:25.000Z,34
2018-05-23T11:20:25.000Z,33
2018-05-23T11:21:25.000Z,33
2018-05-23T11:22:25.000Z,33
2018-05-23T11:23:25.000Z,33
2018-05-23T11:24:25.000Z,33
2018-05-23T11:25:25.000Z,33
2018-05-23T11:27:25.000Z,33
2018-05-23T11:28:25.000Z,33
2018-05-23T11:29:25.000Z,33
2018-05-23T11:30:25.000Z,34
2018-05-23T11:31:25.000Z,34
2018-05-23T11:32:25.000Z,34
2018-05-23T11:33:25.000Z,34
2018-05-23T11:34:25.000Z,34
2018-05-23T11:35:25.000Z,34
2018-05-23T11:36:25.000Z,34
2018-05-23T11:37:25.000Z,34
2018-05-23T11:38:25.000Z,34
2018-05-23T11:39:25.000Z,34
2018-05-23T11:40:25.000Z,34
2018-05-23T11:41:25.000Z,34
2018-05-23T11:42:25.000Z,34
2018-05-23T11:43:25.000Z,34
2018-05-23T11:44:25.000Z,35
2018-05-23T11:45:25.000Z,35
2018-05-23T11:46:25.000Z,35
2018-05-23T11:47:25.000Z,35
2018-05-23T11:49:25.000Z,35
2018-05-23T11:51:25.000Z,35
2018-05-23T11:53:25.000Z,35
2018-05-23T11:54:25.000Z,35
2018-05-23T11:55:25.000Z,35
2018-05-23T11:56:25.000Z,35
2018-05-23T11:57:25.000Z,34
2018-05-23T11:58:25.000Z,34
2018-05-23T11:59:25.000Z,34
2018-05-23T12:00:25.000Z,34
2018-05-23T12:02:25.000Z,34
2018-05-23T12:03:25.000Z,34
2018-05-23T12:05:25.000Z,33
2018-05-23T12:06:25.000Z,34
2018-05-23T12:07:25.000Z,33
2018-05-23T12:08:25.000Z,33
2018-05-23T12:09:25.000Z,33
2018-05-23T12:10:25.000Z,33
2018-05-23T12:11:25.000Z,33
2018-05-23T12:13:25.000Z,33
2018-05-23T12:14:25.000Z,33
2018-05-23T12:16:25.000Z,33
2018-05-23T12:17:25.000Z,33
2018-05-23T12:18:25.000Z,33
2018-05-23T12:19:25.000Z,33
2018-05-23T12:21:25.000Z,33
2018-05-23T12:22:25.000Z,33
2018-05-23T12:24:25.000Z,33
2018-05-23T12:25:25.000Z,33
2018-05-23T12:26:25.000Z,33
2018-05-23T12:27:25.000Z,33
2018-05-23T12:29:25.000Z,33
2018-05-23T12:30:25.000Z,33
2018-05-23T12:32:25.000Z,33
2018-05-23T12:34:25.000Z,33
2018-05-23T12:35:25.000Z,33
2018-05-23T12:36:25.000Z,33
2018-05-23T12:37:25.000Z,33
2018-05-23T12:38:24.000Z,33
2018-05-23T12:40:24.000Z,33
2018-05-23T12:42:24.000Z,32
2018-05-23T12:43:24.000Z,33
2018-05-23T12:44:24.000Z,33
2018-05-23T12:45:24.000Z,33
2018-05-23T12:47:24.000Z,33
2018-05-23T12:48:24.000Z,33
2018-05-23T12:49:24.000Z,32
2018-05-23T12:50:24.000Z,32
2018-05-23T12:51:24.000Z,32
2018-05-23T12:52:24.000Z,32
2018-05-23T12:53:24.000Z,32
2018-05-23T12:54:24.000Z,32
2018-05-23T12:55:24.000Z,32
2018-05-23T12:56:24.000Z,32
2018-05-23T12:57:24.000Z,32
2018-05-23T12:59:24.000Z,31
2018-05-23T13:00:25.000Z,32
2018-05-23T13:02:25.000Z,31
2018-05-23T13:03:25.000Z,31
2018-05-23T13:04:25.000Z,31
2018-05-23T13:05:25.000Z,31
2018-05-23T13:06:25.000Z,31
2018-05-23T13:07:25.000Z,31
2018-05-23T13:08:25.000Z,31
2018-05-23T13:09:25.000Z,31
2018-05-23T13:10:25.000Z,31
2018-05-23T13:11:25.000Z,31
2018-05-23T13:12:25.000Z,31
2018-05-23T13:14:25.000Z,30
2018-05-23T13:15:25.000Z,30
2018-05-23T13:16:25.000Z,30
2018-05-23T13:17:25.000Z,30
2018-05-23T13:18:25.000Z,30
2018-05-23T13:19:25.000Z,30
2018-05-23T13:20:25.000Z,30
2018-05-23T13:21:25.000Z,30
2018-05-23T13:22:25.000Z,30
2018-05-23T13:23:25.000Z,30
2018-05-23T13:24:25.000Z,30
2018-05-23T13:25:25.000Z,31
2018-05-23T13:26:25.000Z,30
2018-05-23T13:27:25.000Z,31
2018-05-23T13:28:25.000Z,31
2018-05-23T13:29:25.000Z,31
2018-05-23T13:30:25.000Z,31
2018-05-23T13:31:25.000Z,31
2018-05-23T13:32:25.000Z,31
2018-05-23T13:34:25.000Z,31
2018-05-23T13:35:25.000Z,31
2018-05-23T13:36:25.000Z,31
2018-05-23T13:37:25.000Z,31
2018-05-23T13:38:25.000Z,31
2018-05-23T13:39:25.000Z,31
2018-05-23T13:40:25.000Z,31
2018-05-23T13:41:25.000Z,31
2018-05-23T13:42:25.000Z,31
2018-05-23T13:43:25.000Z,31
2018-05-23T13:44:25.000Z,31
2018-05-23T13:45:25.000Z,31
2018-05-23T13:47:25.000Z,31
2018-05-23T13:48:25.000Z,31
2018-05-23T13:50:25.000Z,31
2018-05-23T13:51:25.000Z,32
2018-05-23T13:52:25.000Z,32
2018-05-23T13:53:25.000Z,31
2018-05-23T13:54:25.000Z,32
2018-05-23T13:55:25.000Z,32
2018-05-23T13:56:25.000Z,31
2018-05-23T13:57:25.000Z,32
2018-05-23T13:58:25.000Z,32
2018-05-23T14:00:25.000Z,32
2018-05-23T14:01:25.000Z,32
2018-05-23T14:03:25.000Z,32
2018-05-23T14:04:25.000Z,32
2018-05-23T14:05:25.000Z,32
2018-05-23T14:06:25.000Z,32
2018-05-23T14:08:25.000Z,32
2018-05-23T14:09:25.000Z,32
2018-05-23T14:10:25.000Z,32
2018-05-23T14:11:25.000Z,32
2018-05-23T14:12:25.000Z,32
2018-05-23T14:14:25.000Z,32
2018-05-23T14:15:25.000Z,32
2018-05-23T14:16:25.000Z,32
2018-05-23T14:17:25.000Z,32
2018-05-23T14:18:25.000Z,32
2018-05-23T14:19:25.000Z,32
2018-05-23T14:20:25.000Z,32
2018-05-23T14:22:25.000Z,32
2018-05-23T14:23:25.000Z,32
2018-05-23T14:24:25.000Z,32
2018-05-23T14:25:25.000Z,32
2018-05-23T14:26:25.000Z,32
2018-05-23T14:27:25.000Z,32
2018-05-23T14:28:25.000Z,32
2018-05-23T14:29:25.000Z,32
2018-05-23T14:30:25.000Z,32
2018-05-23T14:31:25.000Z,32
2018-05-23T14:32:25.000Z,32
2018-05-23T14:33:25.000Z,32
2018-05-23T14:34:25.000Z,32
2018-05-23T14:35:25.000Z,32
2018-05-23T14:36:25.000Z,32
2018-05-23T14:38:25.000Z,32
2018-05-23T14:39:25.000Z,32
2018-05-23T14:40:25.000Z,32
2018-05-23T14:41:25.000Z,32
2018-05-23T14:42:25.000Z,32
2018-05-23T14:43:25.000Z,32
2018-05-23T14:44:25.000Z,32
2018-05-23T14:45:25.000Z,32
2018-05-23T14:46:25.000Z,33
2018-05-23T14:48:25.000Z,32
2018-05-23T14:49:25.000Z,32
2018-05-23T14:51:25.000Z,32
2018-05-23T14:52:25.000Z,32
2018-05-23T14:53:25.000Z,33
2018-05-23T14:54:25.000Z,33
2018-05-23T14:55:25.000Z,32
2018-05-23T14:56:25.000Z,32
2018-05-23T14:57:25.000Z,32
2018-05-23T14:58:25.000Z,32
2018-05-23T14:59:25.000Z,32
2018-05-23T15:00:25.000Z,32
2018-05-23T15:01:25.000Z,32
2018-05-23T15:04:18.000Z,32
2018-05-23T15:05:18.000Z,32
2018-05-23T15:06:18.000Z,32
2018-05-23T15:07:18.000Z,32
2018-05-23T15:08:19.000Z,32
2018-05-23T15:09:19.000Z,32
2018-05-23T15:10:19.000Z,32
2018-05-23T15:11:19.000Z,32
2018-05-23T15:12:19.000Z,32
2018-05-23T15:13:19.000Z,32
2018-05-23T15:14:19.000Z,32
2018-05-23T15:15:19.000Z,32
2018-05-23T15:16:19.000Z,32
2018-05-23T15:17:19.000Z,32
2018-05-23T15:18:19.000Z,32
2018-05-23T15:19:19.000Z,32
2018-05-23T15:20:19.000Z,32
2018-05-23T15:21:19.000Z,32
2018-05-23T15:23:19.000Z,32
2018-05-23T15:24:19.000Z,32
2018-05-23T15:25:19.000Z,32
2018-05-23T15:26:19.000Z,32
2018-05-23T15:28:19.000Z,32
2018-05-23T15:29:19.000Z,32
2018-05-23T15:30:19.000Z,33
2018-05-23T15:31:19.000Z,32
2018-05-23T15:32:19.000Z,32
2018-05-23T15:33:19.000Z,32
2018-05-23T15:34:19.000Z,32
2018-05-23T15:35:19.000Z,32
2018-05-23T15:37:19.000Z,32
2018-05-23T15:38:19.000Z,32
2018-05-23T15:39:19.000Z,33
2018-05-23T15:40:19.000Z,32
2018-05-23T15:41:19.000Z,33
2018-05-23T15:42:19.000Z,33
2018-05-23T15:43:19.000Z,33
2018-05-23T15:44:19.000Z,32
2018-05-23T15:46:19.000Z,32
2018-05-23T15:48:19.000Z,32
2018-05-23T15:49:19.000Z,32
2018-05-23T15:50:19.000Z,32
2018-05-23T15:51:19.000Z,32
2018-05-23T15:53:19.000Z,32
2018-05-23T15:57:05.000Z,33
2018-05-23T15:58:05.000Z,33
2018-05-23T15:59:05.000Z,33
2018-05-23T16:01:05.000Z,33
2018-05-23T16:02:05.000Z,33
2018-05-23T16:03:05.000Z,33
2018-05-23T16:05:05.000Z,33
2018-05-23T16:06:05.000Z,33
2018-05-23T16:07:05.000Z,33
2018-05-23T16:08:05.000Z,33
2018-05-23T16:09:05.000Z,33
2018-05-23T16:10:05.000Z,33
2018-05-23T16:11:05.000Z,33